Terminal Aerodrome Forecast
Issued by NWS

Home | Current Version | Previous Version | Text Only | Print | Product List | Glossary On
Versions: 1 2 3 4 5 6 7 8 9 10 11 12 13 14 15 16 17 18 19 20 21 22 23 24 25 26 27
000
FTUS46 KMTR 281129
TAFSFO
TAF
KSFO 281129Z 2812/2918 28003KT P6SM FEW200
     FM282100 28018G24KT P6SM BKN200
     FM290400 28015KT P6SM SCT200
     FM290600 26012KT P6SM OVC012
     FM291200 26009KT P6SM OVC015=

USA.gov is the U.S. government's official web portal to all federal, state and local government web resources and services.